sensor_id;sensor_type;location;lat;lon;timestamp;temperature;humidity
71175;DHT22;58876;51.994;4.472;2023-05-10T00:00:31;13.02;88.93
71175;DHT22;58876;51.994;4.472;2023-05-10T00:02:57;13.10;88.63
71175;DHT22;58876;51.994;4.472;2023-05-10T00:05:22;13.17;88.31
71175;DHT22;58876;51.994;4.472;2023-05-10T00:07:48;13.17;88.02
71175;DHT22;58876;51.994;4.472;2023-05-10T00:10:13;13.16;88.07
71175;DHT22;58876;51.994;4.472;2023-05-10T00:12:38;13.00;88.22
71175;DHT22;58876;51.994;4.472;2023-05-10T00:15:05;13.06;88.32
71175;DHT22;58876;51.994;4.472;2023-05-10T00:17:30;13.13;88.15
71175;DHT22;58876;51.994;4.472;2023-05-10T00:19:56;13.04;88.19
71175;DHT22;58876;51.994;4.472;2023-05-10T00:22:21;13.10;88.30
71175;DHT22;58876;51.994;4.472;2023-05-10T00:24:47;13.17;87.83
71175;DHT22;58876;51.994;4.472;2023-05-10T00:27:12;13.18;87.78
71175;DHT22;58876;51.994;4.472;2023-05-10T00:29:38;13.18;87.79
71175;DHT22;58876;51.994;4.472;2023-05-10T00:32:03;13.18;87.56
71175;DHT22;58876;51.994;4.472;2023-05-10T00:34:29;13.26;87.47
71175;DHT22;58876;51.994;4.472;2023-05-10T00:36:54;13.34;87.39
71175;DHT22;58876;51.994;4.472;2023-05-10T00:39:20;13.18;87.66
71175;DHT22;58876;51.994;4.472;2023-05-10T00:41:45;13.07;88.86
71175;DHT22;58876;51.994;4.472;2023-05-10T00:44:11;13.16;88.93
71175;DHT22;58876;51.994;4.472;2023-05-10T00:46:36;13.14;88.74
71175;DHT22;58876;51.994;4.472;2023-05-10T00:49:02;13.20;88.72
71175;DHT22;58876;51.994;4.472;2023-05-10T00:51:28;13.27;88.73
71175;DHT22;58876;51.994;4.472;2023-05-10T00:53:54;13.36;88.80
71175;DHT22;58876;51.994;4.472;2023-05-10T00:56:21;13.28;88.90
71175;DHT22;58876;51.994;4.472;2023-05-10T00:58:48;13.26;88.92
71175;DHT22;58876;51.994;4.472;2023-05-10T01:01:14;13.23;89.16
71175;DHT22;58876;51.994;4.472;2023-05-10T01:03:40;13.27;89.18
71175;DHT22;58876;51.994;4.472;2023-05-10T01:06:06;13.10;89.66
71175;DHT22;58876;51.994;4.472;2023-05-10T01:08:32;13.10;89.66
71175;DHT22;58876;51.994;4.472;2023-05-10T01:10:58;13.06;89.91
71175;DHT22;58876;51.994;4.472;2023-05-10T01:15:59;13.13;90.04
71175;DHT22;58876;51.994;4.472;2023-05-10T01:18:29;13.27;89.95
71175;DHT22;58876;51.994;4.472;2023-05-10T01:21:33;13.33;89.90
71175;DHT22;58876;51.994;4.472;2023-05-10T01:24:09;13.40;89.67
71175;DHT22;58876;51.994;4.472;2023-05-10T01:32:16;13.43;89.39
71175;DHT22;58876;51.994;4.472;2023-05-10T01:37:52;13.51;89.21
71175;DHT22;58876;51.994;4.472;2023-05-10T01:40:42;13.46;89.17
71175;DHT22;58876;51.994;4.472;2023-05-10T01:43:21;13.46;89.58
71175;DHT22;58876;51.994;4.472;2023-05-10T01:46:07;13.54;89.46
71175;DHT22;58876;51.994;4.472;2023-05-10T01:48:47;13.50;89.34
71175;DHT22;58876;51.994;4.472;2023-05-10T01:51:23;13.57;89.34
71175;DHT22;58876;51.994;4.472;2023-05-10T01:53:54;13.50;89.15
71175;DHT22;58876;51.994;4.472;2023-05-10T01:56:26;13.48;89.42
71175;DHT22;58876;51.994;4.472;2023-05-10T01:58:54;13.48;89.51
71175;DHT22;58876;51.994;4.472;2023-05-10T02:01:21;13.43;89.71
71175;DHT22;58876;51.994;4.472;2023-05-10T02:03:49;13.41;89.88
71175;DHT22;58876;51.994;4.472;2023-05-10T02:06:19;13.41;89.65
71175;DHT22;58876;51.994;4.472;2023-05-10T02:08:46;13.28;90.18
71175;DHT22;58876;51.994;4.472;2023-05-10T02:11:13;13.46;90.20
71175;DHT22;58876;51.994;4.472;2023-05-10T02:13:39;13.64;89.78
71175;DHT22;58876;51.994;4.472;2023-05-10T02:16:07;13.61;89.50
71175;DHT22;58876;51.994;4.472;2023-05-10T02:18:35;13.57;89.56
71175;DHT22;58876;51.994;4.472;2023-05-10T02:21:02;13.58;89.11
71175;DHT22;58876;51.994;4.472;2023-05-10T02:23:29;13.51;89.47
71175;DHT22;58876;51.994;4.472;2023-05-10T02:25:57;13.55;89.80
71175;DHT22;58876;51.994;4.472;2023-05-10T02:28:25;13.43;89.72
71175;DHT22;58876;51.994;4.472;2023-05-10T02:30:53;13.47;89.76
71175;DHT22;58876;51.994;4.472;2023-05-10T02:33:20;13.62;89.77
71175;DHT22;58876;51.994;4.472;2023-05-10T02:35:46;13.54;89.47
71175;DHT22;58876;51.994;4.472;2023-05-10T02:38:14;13.44;89.77
71175;DHT22;58876;51.994;4.472;2023-05-10T02:40:42;13.48;89.49
71175;DHT22;58876;51.994;4.472;2023-05-10T02:43:13;13.48;89.74
71175;DHT22;58876;51.994;4.472;2023-05-10T02:45:40;13.68;89.38
71175;DHT22;58876;51.994;4.472;2023-05-10T02:48:06;13.48;89.44
71175;DHT22;58876;51.994;4.472;2023-05-10T02:50:33;13.57;89.25
71175;DHT22;58876;51.994;4.472;2023-05-10T02:53:11;13.65;89.09
71175;DHT22;58876;51.994;4.472;2023-05-10T02:55:43;13.67;89.24
71175;DHT22;58876;51.994;4.472;2023-05-10T02:58:10;13.64;88.93
71175;DHT22;58876;51.994;4.472;2023-05-10T03:00:36;13.68;88.89
71175;DHT22;58876;51.994;4.472;2023-05-10T03:03:01;13.81;88.57
71175;DHT22;58876;51.994;4.472;2023-05-10T03:05:27;13.57;88.90
71175;DHT22;58876;51.994;4.472;2023-05-10T03:07:54;13.62;88.80
71175;DHT22;58876;51.994;4.472;2023-05-10T03:10:27;13.69;88.75
71175;DHT22;58876;51.994;4.472;2023-05-10T03:18:30;13.75;88.06
71175;DHT22;58876;51.994;4.472;2023-05-10T03:21:04;13.72;88.23
71175;DHT22;58876;51.994;4.472;2023-05-10T03:23:43;13.86;88.25
71175;DHT22;58876;51.994;4.472;2023-05-10T03:26:18;13.96;87.79
71175;DHT22;58876;51.994;4.472;2023-05-10T03:28:47;13.94;87.75
71175;DHT22;58876;51.994;4.472;2023-05-10T03:31:14;13.83;87.57
71175;DHT22;58876;51.994;4.472;2023-05-10T03:33:51;13.71;88.32
71175;DHT22;58876;51.994;4.472;2023-05-10T03:36:17;13.69;88.29
71175;DHT22;58876;51.994;4.472;2023-05-10T03:38:43;13.51;88.78
71175;DHT22;58876;51.994;4.472;2023-05-10T03:41:09;13.46;88.88
71175;DHT22;58876;51.994;4.472;2023-05-10T03:43:34;13.55;88.95
71175;DHT22;58876;51.994;4.472;2023-05-10T03:46:04;13.69;88.85
71175;DHT22;58876;51.994;4.472;2023-05-10T03:48:30;13.72;88.62
71175;DHT22;58876;51.994;4.472;2023-05-10T03:50:55;13.79;88.39
71175;DHT22;58876;51.994;4.472;2023-05-10T03:53:20;13.81;88.02
71175;DHT22;58876;51.994;4.472;2023-05-10T03:55:46;13.47;88.63
71175;DHT22;58876;51.994;4.472;2023-05-10T03:58:11;13.44;88.91
71175;DHT22;58876;51.994;4.472;2023-05-10T04:00:37;13.57;88.84
71175;DHT22;58876;51.994;4.472;2023-05-10T04:03:02;13.51;89.05
71175;DHT22;58876;51.994;4.472;2023-05-10T04:05:28;13.37;88.89
71175;DHT22;58876;51.994;4.472;2023-05-10T04:07:54;13.44;89.04
71175;DHT22;58876;51.994;4.472;2023-05-10T04:10:19;13.47;88.87
71175;DHT22;58876;51.994;4.472;2023-05-10T04:12:45;13.51;88.71
71175;DHT22;58876;51.994;4.472;2023-05-10T04:15:11;13.53;88.71
71175;DHT22;58876;51.994;4.472;2023-05-10T04:17:36;13.53;88.48
71175;DHT22;58876;51.994;4.472;2023-05-10T04:20:03;13.50;88.54
71175;DHT22;58876;51.994;4.472;2023-05-10T04:22:28;13.41;88.29
71175;DHT22;58876;51.994;4.472;2023-05-10T04:24:54;13.36;88.71
71175;DHT22;58876;51.994;4.472;2023-05-10T04:27:19;13.36;88.60
71175;DHT22;58876;51.994;4.472;2023-05-10T04:29:45;13.18;89.12
71175;DHT22;58876;51.994;4.472;2023-05-10T04:32:10;13.34;89.23
71175;DHT22;58876;51.994;4.472;2023-05-10T04:34:36;13.36;88.49
71175;DHT22;58876;51.994;4.472;2023-05-10T04:37:02;13.31;88.82
71175;DHT22;58876;51.994;4.472;2023-05-10T04:39:27;13.14;88.55
71175;DHT22;58876;51.994;4.472;2023-05-10T04:41:53;13.16;89.22
71175;DHT22;58876;51.994;4.472;2023-05-10T04:44:18;13.27;88.92
71175;DHT22;58876;51.994;4.472;2023-05-10T04:46:44;13.27;88.48
71175;DHT22;58876;51.994;4.472;2023-05-10T04:49:09;13.14;88.75
71175;DHT22;58876;51.994;4.472;2023-05-10T04:51:34;13.11;88.77
71175;DHT22;58876;51.994;4.472;2023-05-10T04:54:00;13.09;88.80
71175;DHT22;58876;51.994;4.472;2023-05-10T04:56:25;13.21;88.55
71175;DHT22;58876;51.994;4.472;2023-05-10T04:58:51;13.24;88.00
71175;DHT22;58876;51.994;4.472;2023-05-10T05:01:16;13.21;88.07
71175;DHT22;58876;51.994;4.472;2023-05-10T05:03:42;13.20;87.94
71175;DHT22;58876;51.994;4.472;2023-05-10T05:06:07;13.30;87.95
71175;DHT22;58876;51.994;4.472;2023-05-10T05:08:33;13.34;87.70
71175;DHT22;58876;51.994;4.472;2023-05-10T05:10:58;13.34;87.24
71175;DHT22;58876;51.994;4.472;2023-05-10T05:13:24;13.27;87.30
71175;DHT22;58876;51.994;4.472;2023-05-10T05:15:50;13.33;87.23
71175;DHT22;58876;51.994;4.472;2023-05-10T05:18:15;13.30;87.05
71175;DHT22;58876;51.994;4.472;2023-05-10T05:20:40;13.23;87.24
71175;DHT22;58876;51.994;4.472;2023-05-10T05:23:06;13.21;87.38
71175;DHT22;58876;51.994;4.472;2023-05-10T05:25:31;13.33;87.38
71175;DHT22;58876;51.994;4.472;2023-05-10T05:27:57;13.37;87.25
71175;DHT22;58876;51.994;4.472;2023-05-10T05:30:22;13.50;87.32
71175;DHT22;58876;51.994;4.472;2023-05-10T05:32:47;13.55;86.67
71175;DHT22;58876;51.994;4.472;2023-05-10T05:35:13;13.65;86.65
71175;DHT22;58876;51.994;4.472;2023-05-10T05:37:39;13.71;86.59
71175;DHT22;58876;51.994;4.472;2023-05-10T05:40:05;13.46;86.75
71175;DHT22;58876;51.994;4.472;2023-05-10T05:42:31;13.46;87.29
71175;DHT22;58876;51.994;4.472;2023-05-10T05:44:57;13.48;87.30
71175;DHT22;58876;51.994;4.472;2023-05-10T05:47:22;13.61;86.99
71175;DHT22;58876;51.994;4.472;2023-05-10T05:49:48;13.64;86.73
71175;DHT22;58876;51.994;4.472;2023-05-10T05:52:13;13.72;86.63
71175;DHT22;58876;51.994;4.472;2023-05-10T05:54:39;13.75;86.25
71175;DHT22;58876;51.994;4.472;2023-05-10T05:57:04;13.79;86.52
71175;DHT22;58876;51.994;4.472;2023-05-10T05:59:30;13.76;86.20
71175;DHT22;58876;51.994;4.472;2023-05-10T06:01:55;13.69;86.49
71175;DHT22;58876;51.994;4.472;2023-05-10T06:04:20;13.74;86.56
71175;DHT22;58876;51.994;4.472;2023-05-10T06:06:46;13.79;86.20
71175;DHT22;58876;51.994;4.472;2023-05-10T06:09:12;13.92;86.13
71175;DHT22;58876;51.994;4.472;2023-05-10T06:11:37;14.06;85.49
71175;DHT22;58876;51.994;4.472;2023-05-10T06:14:05;14.29;85.40
71175;DHT22;58876;51.994;4.472;2023-05-10T06:16:32;14.65;84.53
71175;DHT22;58876;51.994;4.472;2023-05-10T06:18:57;14.77;83.69
71175;DHT22;58876;51.994;4.472;2023-05-10T06:21:23;14.98;83.51
71175;DHT22;58876;51.994;4.472;2023-05-10T06:23:48;14.87;83.71
71175;DHT22;58876;51.994;4.472;2023-05-10T06:26:14;14.96;83.17
71175;DHT22;58876;51.994;4.472;2023-05-10T06:28:40;15.31;83.37
71175;DHT22;58876;51.994;4.472;2023-05-10T06:31:06;15.42;82.79
71175;DHT22;58876;51.994;4.472;2023-05-10T06:33:32;15.39;81.57
71175;DHT22;58876;51.994;4.472;2023-05-10T06:35:58;15.32;81.82
71175;DHT22;58876;51.994;4.472;2023-05-10T06:38:24;15.36;81.96
71175;DHT22;58876;51.994;4.472;2023-05-10T06:40:49;15.15;81.98
71175;DHT22;58876;51.994;4.472;2023-05-10T06:43:15;14.85;82.86
71175;DHT22;58876;51.994;4.472;2023-05-10T06:45:41;14.75;82.89
71175;DHT22;58876;51.994;4.472;2023-05-10T06:48:07;14.95;83.63
71175;DHT22;58876;51.994;4.472;2023-05-10T06:50:33;14.81;82.95
71175;DHT22;58876;51.994;4.472;2023-05-10T06:52:58;14.65;83.78
71175;DHT22;58876;51.994;4.472;2023-05-10T06:55:24;14.85;83.64
71175;DHT22;58876;51.994;4.472;2023-05-10T06:57:50;14.95;83.58
71175;DHT22;58876;51.994;4.472;2023-05-10T07:00:16;14.88;83.79
71175;DHT22;58876;51.994;4.472;2023-05-10T07:02:42;15.01;83.19
71175;DHT22;58876;51.994;4.472;2023-05-10T07:05:08;15.09;82.80
71175;DHT22;58876;51.994;4.472;2023-05-10T07:07:33;15.04;82.74
71175;DHT22;58876;51.994;4.472;2023-05-10T07:10:00;15.11;82.74
71175;DHT22;58876;51.994;4.472;2023-05-10T07:12:25;15.15;83.19
71175;DHT22;58876;51.994;4.472;2023-05-10T07:14:51;15.36;83.12
71175;DHT22;58876;51.994;4.472;2023-05-10T07:17:16;15.01;82.78
71175;DHT22;58876;51.994;4.472;2023-05-10T07:19:42;15.19;83.45
71175;DHT22;58876;51.994;4.472;2023-05-10T07:22:07;15.14;83.56
71175;DHT22;58876;51.994;4.472;2023-05-10T07:24:33;15.24;82.38
71175;DHT22;58876;51.994;4.472;2023-05-10T07:26:59;15.28;82.55
71175;DHT22;58876;51.994;4.472;2023-05-10T07:29:25;15.02;82.60
71175;DHT22;58876;51.994;4.472;2023-05-10T07:31:50;15.12;83.09
71175;DHT22;58876;51.994;4.472;2023-05-10T07:34:15;14.85;83.42
71175;DHT22;58876;51.994;4.472;2023-05-10T07:36:41;14.75;83.60
71175;DHT22;58876;51.994;4.472;2023-05-10T07:39:06;14.88;83.88
71175;DHT22;58876;51.994;4.472;2023-05-10T07:41:32;14.77;83.79
71175;DHT22;58876;51.994;4.472;2023-05-10T07:43:58;14.63;84.40
71175;DHT22;58876;51.994;4.472;2023-05-10T07:46:23;14.59;84.83
71175;DHT22;58876;51.994;4.472;2023-05-10T07:48:49;14.84;84.45
71175;DHT22;58876;51.994;4.472;2023-05-10T07:51:14;14.78;84.09
71175;DHT22;58876;51.994;4.472;2023-05-10T07:53:39;14.71;83.79
71175;DHT22;58876;51.994;4.472;2023-05-10T07:56:24;14.73;84.03
71175;DHT22;58876;51.994;4.472;2023-05-10T07:58:51;14.83;83.75
71175;DHT22;58876;51.994;4.472;2023-05-10T08:01:17;14.59;84.14
71175;DHT22;58876;51.994;4.472;2023-05-10T08:03:43;14.68;84.43
71175;DHT22;58876;51.994;4.472;2023-05-10T08:06:08;14.60;84.46
71175;DHT22;58876;51.994;4.472;2023-05-10T08:08:34;14.68;85.17
71175;DHT22;58876;51.994;4.472;2023-05-10T08:10:59;14.83;83.70
71175;DHT22;58876;51.994;4.472;2023-05-10T08:13:24;14.91;84.55
71175;DHT22;58876;51.994;4.472;2023-05-10T08:15:50;15.28;84.04
71175;DHT22;58876;51.994;4.472;2023-05-10T08:18:18;15.38;83.01
71175;DHT22;58876;51.994;4.472;2023-05-10T08:20:44;15.64;82.61
71175;DHT22;58876;51.994;4.472;2023-05-10T08:23:09;15.55;81.56
71175;DHT22;58876;51.994;4.472;2023-05-10T08:25:35;15.66;80.77
71175;DHT22;58876;51.994;4.472;2023-05-10T08:28:00;15.80;80.88
71175;DHT22;58876;51.994;4.472;2023-05-10T08:30:25;15.97;80.88
71175;DHT22;58876;51.994;4.472;2023-05-10T08:32:51;15.96;80.62
71175;DHT22;58876;51.994;4.472;2023-05-10T08:35:16;15.77;80.56
71175;DHT22;58876;51.994;4.472;2023-05-10T08:37:42;15.42;80.77
71175;DHT22;58876;51.994;4.472;2023-05-10T08:40:08;15.52;82.29
71175;DHT22;58876;51.994;4.472;2023-05-10T08:42:40;15.63;81.60
71175;DHT22;58876;51.994;4.472;2023-05-10T08:45:07;15.73;80.95
71175;DHT22;58876;51.994;4.472;2023-05-10T08:47:35;15.98;80.35
71175;DHT22;58876;51.994;4.472;2023-05-10T08:50:02;16.25;80.46
71175;DHT22;58876;51.994;4.472;2023-05-10T08:52:30;16.24;79.28
71175;DHT22;58876;51.994;4.472;2023-05-10T08:54:58;16.18;79.56
71175;DHT22;58876;51.994;4.472;2023-05-10T08:57:23;15.86;79.58
71175;DHT22;58876;51.994;4.472;2023-05-10T08:59:49;15.71;80.26
71175;DHT22;58876;51.994;4.472;2023-05-10T09:02:16;15.73;80.31
71175;DHT22;58876;51.994;4.472;2023-05-10T09:04:43;15.57;81.11
71175;DHT22;58876;51.994;4.472;2023-05-10T09:07:10;15.79;80.78
71175;DHT22;58876;51.994;4.472;2023-05-10T09:09:36;15.64;80.80
71175;DHT22;58876;51.994;4.472;2023-05-10T09:12:02;15.69;80.63
71175;DHT22;58876;51.994;4.472;2023-05-10T09:14:28;15.71;81.18
71175;DHT22;58876;51.994;4.472;2023-05-10T09:16:54;15.73;81.12
71175;DHT22;58876;51.994;4.472;2023-05-10T09:19:20;15.74;81.03
71175;DHT22;58876;51.994;4.472;2023-05-10T09:21:46;16.00;79.94
71175;DHT22;58876;51.994;4.472;2023-05-10T09:24:11;15.74;79.92
71175;DHT22;58876;51.994;4.472;2023-05-10T09:26:46;15.66;80.87
71175;DHT22;58876;51.994;4.472;2023-05-10T09:29:13;15.66;80.86
71175;DHT22;58876;51.994;4.472;2023-05-10T09:31:47;16.04;80.20
71175;DHT22;58876;51.994;4.472;2023-05-10T09:34:30;16.38;79.82
71175;DHT22;58876;51.994;4.472;2023-05-10T09:37:02;16.51;77.57
71175;DHT22;58876;51.994;4.472;2023-05-10T09:39:36;16.82;78.28
71175;DHT22;58876;51.994;4.472;2023-05-10T09:42:08;16.77;75.21
71175;DHT22;58876;51.994;4.472;2023-05-10T09:44:35;16.86;76.38
71175;DHT22;58876;51.994;4.472;2023-05-10T09:47:03;17.03;75.52
71175;DHT22;58876;51.994;4.472;2023-05-10T09:49:30;16.72;76.15
71175;DHT22;58876;51.994;4.472;2023-05-10T09:52:04;16.73;76.53
71175;DHT22;58876;51.994;4.472;2023-05-10T09:54:30;16.62;77.32
71175;DHT22;58876;51.994;4.472;2023-05-10T09:56:56;16.84;75.65
71175;DHT22;58876;51.994;4.472;2023-05-10T09:59:25;16.83;76.49
71175;DHT22;58876;51.994;4.472;2023-05-10T10:01:52;17.19;76.65
71175;DHT22;58876;51.994;4.472;2023-05-10T10:04:20;17.33;75.17
71175;DHT22;58876;51.994;4.472;2023-05-10T10:06:46;17.65;74.51
71175;DHT22;58876;51.994;4.472;2023-05-10T10:09:13;17.82;73.72
71175;DHT22;58876;51.994;4.472;2023-05-10T10:11:39;18.09;72.26
71175;DHT22;58876;51.994;4.472;2023-05-10T10:14:05;18.09;73.52
71175;DHT22;58876;51.994;4.472;2023-05-10T10:16:32;17.67;71.86
71175;DHT22;58876;51.994;4.472;2023-05-10T10:18:58;17.83;72.45
71175;DHT22;58876;51.994;4.472;2023-05-10T10:21:24;18.26;72.90
71175;DHT22;58876;51.994;4.472;2023-05-10T10:23:50;18.28;72.84
71175;DHT22;58876;51.994;4.472;2023-05-10T10:26:18;17.92;72.14
71175;DHT22;58876;51.994;4.472;2023-05-10T10:31:45;17.26;74.51
71175;DHT22;58876;51.994;4.472;2023-05-10T10:34:27;17.58;73.34
71175;DHT22;58876;51.994;4.472;2023-05-10T10:36:55;18.13;73.74
71175;DHT22;58876;51.994;4.472;2023-05-10T10:39:23;17.52;73.84
71175;DHT22;58876;51.994;4.472;2023-05-10T10:41:57;17.17;74.65
71175;DHT22;58876;51.994;4.472;2023-05-10T10:44:37;16.93;74.92
71175;DHT22;58876;51.994;4.472;2023-05-10T10:50:05;17.24;73.73
71175;DHT22;58876;51.994;4.472;2023-05-10T10:52:39;17.88;73.57
71175;DHT22;58876;51.994;4.472;2023-05-10T11:00:27;16.79;75.18
71175;DHT22;58876;51.994;4.472;2023-05-10T11:02:57;16.97;74.36
71175;DHT22;58876;51.994;4.472;2023-05-10T11:07:59;18.08;72.27
71175;DHT22;58876;51.994;4.472;2023-05-10T11:10:26;17.83;72.31
71175;DHT22;58876;51.994;4.472;2023-05-10T11:13:09;17.37;73.05
71175;DHT22;58876;51.994;4.472;2023-05-10T11:15:38;17.37;74.40
71175;DHT22;58876;51.994;4.472;2023-05-10T11:20:54;17.34;74.64
71175;DHT22;58876;51.994;4.472;2023-05-10T11:23:21;17.28;72.58
71175;DHT22;58876;51.994;4.472;2023-05-10T11:25:48;17.35;72.26
71175;DHT22;58876;51.994;4.472;2023-05-10T11:28:16;17.24;73.36
71175;DHT22;58876;51.994;4.472;2023-05-10T11:30:44;17.23;72.36
71175;DHT22;58876;51.994;4.472;2023-05-10T11:33:15;17.55;72.28
71175;DHT22;58876;51.994;4.472;2023-05-10T11:35:42;17.51;71.54
71175;DHT22;58876;51.994;4.472;2023-05-10T11:38:09;17.27;71.18
71175;DHT22;58876;51.994;4.472;2023-05-10T11:40:36;17.21;72.70
71175;DHT22;58876;51.994;4.472;2023-05-10T11:43:03;17.45;73.14
71175;DHT22;58876;51.994;4.472;2023-05-10T11:45:31;17.37;71.79
71175;DHT22;58876;51.994;4.472;2023-05-10T11:47:58;17.30;72.31
71175;DHT22;58876;51.994;4.472;2023-05-10T11:50:24;17.40;73.27
71175;DHT22;58876;51.994;4.472;2023-05-10T11:52:55;16.87;73.83
71175;DHT22;58876;51.994;4.472;2023-05-10T11:55:21;17.04;73.12
71175;DHT22;58876;51.994;4.472;2023-05-10T11:57:47;17.10;72.33
71175;DHT22;58876;51.994;4.472;2023-05-10T12:00:13;17.21;72.51
71175;DHT22;58876;51.994;4.472;2023-05-10T12:02:39;17.27;72.65
71175;DHT22;58876;51.994;4.472;2023-05-10T12:05:06;17.14;71.89
71175;DHT22;58876;51.994;4.472;2023-05-10T12:07:32;17.09;73.42
71175;DHT22;58876;51.994;4.472;2023-05-10T12:10:11;16.90;73.18
71175;DHT22;58876;51.994;4.472;2023-05-10T12:12:45;16.76;74.22
71175;DHT22;58876;51.994;4.472;2023-05-10T12:15:18;16.92;74.73
71175;DHT22;58876;51.994;4.472;2023-05-10T12:17:45;16.90;74.46
71175;DHT22;58876;51.994;4.472;2023-05-10T12:22:54;16.24;75.03
71175;DHT22;58876;51.994;4.472;2023-05-10T12:25:21;16.38;75.44
71175;DHT22;58876;51.994;4.472;2023-05-10T12:27:50;16.45;74.87
71175;DHT22;58876;51.994;4.472;2023-05-10T12:30:35;16.36;75.06
71175;DHT22;58876;51.994;4.472;2023-05-10T12:35:32;16.52;76.25
71175;DHT22;58876;51.994;4.472;2023-05-10T12:37:57;16.47;74.28
71175;DHT22;58876;51.994;4.472;2023-05-10T12:40:23;16.28;75.49
71175;DHT22;58876;51.994;4.472;2023-05-10T12:42:48;16.45;74.54
71175;DHT22;58876;51.994;4.472;2023-05-10T12:45:14;16.59;74.15
71175;DHT22;58876;51.994;4.472;2023-05-10T12:47:40;16.40;74.77
71175;DHT22;58876;51.994;4.472;2023-05-10T12:50:05;16.62;73.47
71175;DHT22;58876;51.994;4.472;2023-05-10T12:52:32;16.79;73.17
71175;DHT22;58876;51.994;4.472;2023-05-10T12:54:58;16.76;73.47
71175;DHT22;58876;51.994;4.472;2023-05-10T12:57:24;17.13;73.74
71175;DHT22;58876;51.994;4.472;2023-05-10T12:59:50;17.24;72.74
71175;DHT22;58876;51.994;4.472;2023-05-10T13:02:16;17.14;71.47
71175;DHT22;58876;51.994;4.472;2023-05-10T13:04:46;17.09;71.65
71175;DHT22;58876;51.994;4.472;2023-05-10T13:07:12;16.96;71.71
71175;DHT22;58876;51.994;4.472;2023-05-10T13:09:39;16.90;72.64
71175;DHT22;58876;51.994;4.472;2023-05-10T13:12:04;16.80;72.74
71175;DHT22;58876;51.994;4.472;2023-05-10T13:14:30;16.56;73.45
71175;DHT22;58876;51.994;4.472;2023-05-10T13:16:56;16.35;74.02
71175;DHT22;58876;51.994;4.472;2023-05-10T13:19:22;16.36;74.13
71175;DHT22;58876;51.994;4.472;2023-05-10T13:21:47;16.52;74.49
71175;DHT22;58876;51.994;4.472;2023-05-10T13:24:13;16.72;74.22
71175;DHT22;58876;51.994;4.472;2023-05-10T13:26:39;16.89;73.69
71175;DHT22;58876;51.994;4.472;2023-05-10T13:29:06;16.94;73.15
71175;DHT22;58876;51.994;4.472;2023-05-10T13:31:33;16.86;73.27
71175;DHT22;58876;51.994;4.472;2023-05-10T13:33:58;16.82;73.89
71175;DHT22;58876;51.994;4.472;2023-05-10T13:36:24;16.93;73.12
71175;DHT22;58876;51.994;4.472;2023-05-10T13:38:49;16.99;73.28
71175;DHT22;58876;51.994;4.472;2023-05-10T13:41:15;17.23;73.96
71175;DHT22;58876;51.994;4.472;2023-05-10T13:43:40;17.33;72.04
71175;DHT22;58876;51.994;4.472;2023-05-10T13:46:05;17.52;71.79
71175;DHT22;58876;51.994;4.472;2023-05-10T13:48:32;17.60;71.52
71175;DHT22;58876;51.994;4.472;2023-05-10T13:50:57;17.31;71.52
71175;DHT22;58876;51.994;4.472;2023-05-10T13:53:23;17.04;71.94
71175;DHT22;58876;51.994;4.472;2023-05-10T13:55:49;16.86;72.57
71175;DHT22;58876;51.994;4.472;2023-05-10T13:58:14;17.16;73.38
71175;DHT22;58876;51.994;4.472;2023-05-10T14:00:40;17.21;71.62
71175;DHT22;58876;51.994;4.472;2023-05-10T14:03:05;17.27;72.18
71175;DHT22;58876;51.994;4.472;2023-05-10T14:05:32;17.26;72.41
71175;DHT22;58876;51.994;4.472;2023-05-10T14:07:57;17.44;71.90
71175;DHT22;58876;51.994;4.472;2023-05-10T14:10:23;17.13;72.72
71175;DHT22;58876;51.994;4.472;2023-05-10T14:12:49;17.34;73.12
71175;DHT22;58876;51.994;4.472;2023-05-10T14:15:15;17.55;71.88
71175;DHT22;58876;51.994;4.472;2023-05-10T14:17:40;17.48;70.23
71175;DHT22;58876;51.994;4.472;2023-05-10T14:20:06;17.34;71.46
71175;DHT22;58876;51.994;4.472;2023-05-10T14:22:32;17.28;71.55
71175;DHT22;58876;51.994;4.472;2023-05-10T14:24:58;17.38;72.05
71175;DHT22;58876;51.994;4.472;2023-05-10T14:27:23;17.13;71.70
71175;DHT22;58876;51.994;4.472;2023-05-10T14:29:49;16.72;72.94
71175;DHT22;58876;51.994;4.472;2023-05-10T14:32:14;16.93;73.02
71175;DHT22;58876;51.994;4.472;2023-05-10T14:34:40;17.24;72.75
71175;DHT22;58876;51.994;4.472;2023-05-10T14:37:05;17.27;71.03
71175;DHT22;58876;51.994;4.472;2023-05-10T14:39:31;17.40;71.46
71175;DHT22;58876;51.994;4.472;2023-05-10T14:41:56;17.42;71.69
71175;DHT22;58876;51.994;4.472;2023-05-10T14:44:22;17.26;71.33
71175;DHT22;58876;51.994;4.472;2023-05-10T14:46:47;17.09;71.51
71175;DHT22;58876;51.994;4.472;2023-05-10T14:49:13;17.45;72.20
71175;DHT22;58876;51.994;4.472;2023-05-10T14:51:39;17.61;71.04
71175;DHT22;58876;51.994;4.472;2023-05-10T14:54:05;17.45;69.98
71175;DHT22;58876;51.994;4.472;2023-05-10T14:56:31;17.35;70.80
71175;DHT22;58876;51.994;4.472;2023-05-10T14:58:57;17.38;71.11
71175;DHT22;58876;51.994;4.472;2023-05-10T15:01:22;17.42;70.76
71175;DHT22;58876;51.994;4.472;2023-05-10T15:03:48;17.38;71.40
71175;DHT22;58876;51.994;4.472;2023-05-10T15:06:14;17.47;70.79
71175;DHT22;58876;51.994;4.472;2023-05-10T15:08:41;17.23;70.69
71175;DHT22;58876;51.994;4.472;2023-05-10T15:11:06;17.28;71.22
71175;DHT22;58876;51.994;4.472;2023-05-10T15:13:32;17.38;71.23
71175;DHT22;58876;51.994;4.472;2023-05-10T15:15:57;17.60;71.67
71175;DHT22;58876;51.994;4.472;2023-05-10T15:18:23;17.55;71.00
71175;DHT22;58876;51.994;4.472;2023-05-10T15:20:48;17.64;71.15
71175;DHT22;58876;51.994;4.472;2023-05-10T15:23:14;17.51;70.65
71175;DHT22;58876;51.994;4.472;2023-05-10T15:25:39;17.16;71.37
71175;DHT22;58876;51.994;4.472;2023-05-10T15:28:05;17.13;71.27
71175;DHT22;58876;51.994;4.472;2023-05-10T15:30:33;17.02;71.48
71175;DHT22;58876;51.994;4.472;2023-05-10T15:32:59;16.97;71.68
71175;DHT22;58876;51.994;4.472;2023-05-10T15:35:25;16.97;72.29
71175;DHT22;58876;51.994;4.472;2023-05-10T15:37:51;17.07;71.26
71175;DHT22;58876;51.994;4.472;2023-05-10T15:40:16;16.80;72.50
71175;DHT22;58876;51.994;4.472;2023-05-10T15:42:42;17.03;71.11
71175;DHT22;58876;51.994;4.472;2023-05-10T15:45:08;17.07;71.74
71175;DHT22;58876;51.994;4.472;2023-05-10T15:47:33;17.44;71.26
71175;DHT22;58876;51.994;4.472;2023-05-10T15:49:59;17.62;69.69
71175;DHT22;58876;51.994;4.472;2023-05-10T15:52:25;17.51;69.33
71175;DHT22;58876;51.994;4.472;2023-05-10T15:54:50;17.58;70.27
71175;DHT22;58876;51.994;4.472;2023-05-10T15:57:16;17.51;71.42
71175;DHT22;58876;51.994;4.472;2023-05-10T15:59:41;17.28;70.84
71175;DHT22;58876;51.994;4.472;2023-05-10T16:02:08;17.57;70.95
71175;DHT22;58876;51.994;4.472;2023-05-10T16:04:35;17.74;70.09
71175;DHT22;58876;51.994;4.472;2023-05-10T16:07:01;17.38;70.24